Time;durP1;ratioP1;P1;durP2;ratioP2;P2;SDS_P1;SDS_P2;PMS_P1;PMS_P2;Temp;Humidity;BMP_temperature;BMP_pressure;BME280_temperature;BME280_humidity;BME280_pressure;Samples;Min_cycle;Max_cycle;Signal;HPM_P1;HPM_P2
2023/09/02 00:01:29;;;;;;;6.50;1.30;;;;;;;22.98;nan;61966.28;5012218;28;20178;-63
2023/09/02 00:03:54;;;;;;;0.60;0.60;;;;;;;22.88;nan;62064.38;5011633;28;20582;-64
2023/09/02 00:06:20;;;;;;;0.50;0.50;;;;;;;22.94;nan;62060.75;5013762;28;20220;-64
2023/09/02 00:08:45;;;;;;;0.40;0.40;;;;;;;22.84;nan;62059.81;5017400;28;20320;-63
2023/09/02 00:11:10;;;;;;;0.68;0.68;;;;;;;22.94;nan;62079.00;5015331;28;20179;-65
2023/09/02 00:13:36;;;;;;;0.93;0.93;;;;;;;22.81;nan;61973.56;5015166;28;20176;-64
2023/09/02 00:16:02;;;;;;;0.90;0.90;;;;;;;22.77;nan;61947.63;5015185;28;20570;-63
2023/09/02 00:18:28;;;;;;;0.50;0.50;;;;;;;22.87;nan;62160.22;5015073;28;20195;-64
2023/09/02 00:20:54;;;;;;;1.20;1.10;;;;;;;23.00;nan;61999.25;5015028;28;20607;-64
2023/09/02 00:23:19;;;;;;;0.75;0.75;;;;;;;22.70;nan;61898.56;5015330;28;20168;-64
2023/09/02 00:25:45;;;;;;;0.75;0.75;;;;;;;22.54;nan;61927.22;5014995;28;20195;-64
2023/09/02 00:28:10;;;;;;;1.52;1.27;;;;;;;22.46;nan;61882.25;5015039;28;20183;-66
2023/09/02 00:30:35;;;;;;;0.98;0.98;;;;;;;22.22;nan;61885.66;5014958;28;20183;-64
2023/09/02 00:33:01;;;;;;;1.00;1.00;;;;;;;22.48;nan;62024.56;5016174;28;20322;-65
2023/09/02 00:35:26;;;;;;;1.25;1.15;;;;;;;22.55;nan;61920.56;5020511;28;20639;-64
2023/09/02 00:37:52;;;;;;;1.23;1.17;;;;;;;22.45;nan;61992.53;5014740;28;20187;-64
2023/09/02 00:40:19;;;;;;;1.20;1.10;;;;;;;22.17;nan;61776.44;5019687;28;20195;-64
2023/09/02 00:42:47;;;;;;;0.75;0.75;;;;;;;22.30;nan;61863.50;5022449;28;20184;-64
2023/09/02 00:45:13;;;;;;;0.80;0.80;;;;;;;22.30;nan;61931.19;5022966;28;20198;-64
2023/09/02 00:47:38;;;;;;;0.73;0.55;;;;;;;22.15;nan;61961.00;5021614;28;20180;-65
2023/09/02 00:50:05;;;;;;;0.75;0.75;;;;;;;22.18;nan;61860.84;5020764;28;20186;-63
2023/09/02 00:52:34;;;;;;;0.82;0.82;;;;;;;22.14;nan;61866.72;5012956;28;20210;-63
2023/09/02 00:55:00;;;;;;;0.95;0.80;;;;;;;22.10;nan;61825.19;5016606;28;20642;-63
2023/09/02 00:57:26;;;;;;;0.60;0.60;;;;;;;22.08;nan;61846.31;5018918;28;20545;-63
2023/09/02 00:59:52;;;;;;;0.70;0.70;;;;;;;21.99;nan;61823.66;5019288;28;20187;-63
2023/09/02 01:02:17;;;;;;;0.73;0.73;;;;;;;22.09;nan;61868.84;5016007;28;20175;-63
2023/09/02 01:04:44;;;;;;;0.82;0.75;;;;;;;22.06;nan;61849.28;5014548;28;20200;-64
2023/09/02 01:07:10;;;;;;;0.80;0.80;;;;;;;21.92;nan;61850.09;5019631;28;20180;-64
2023/09/02 01:09:36;;;;;;;0.50;0.50;;;;;;;22.06;nan;61867.50;5015864;28;20183;-64
2023/09/02 01:12:02;;;;;;;0.63;0.63;;;;;;;21.96;nan;62041.44;5015534;28;20176;-63
2023/09/02 01:14:27;;;;;;;0.75;0.75;;;;;;;21.94;nan;61849.78;5013892;28;20183;-64
2023/09/02 01:16:52;;;;;;;1.45;1.35;;;;;;;21.82;nan;61822.56;5014697;28;20229;-63
2023/09/02 01:19:20;;;;;;;0.88;0.88;;;;;;;22.00;nan;61866.44;5019982;28;20267;-64
2023/09/02 01:21:51;;;;;;;1.25;1.15;;;;;;;21.89;nan;61846.69;5014007;28;20195;-64
2023/09/02 01:24:35;;;;;;;0.63;0.63;;;;;;;22.15;nan;61916.75;5017314;28;20262;-64
2023/09/02 01:27:12;;;;;;;0.60;0.60;;;;;;;21.97;nan;61826.59;5008277;28;20223;-65
2023/09/02 01:29:46;;;;;;;0.60;0.60;;;;;;;22.23;nan;61894.59;5018926;28;20678;-62
2023/09/02 01:32:14;;;;;;;1.00;1.00;;;;;;;22.28;nan;61965.94;5016309;28;20180;-65
2023/09/02 01:34:41;;;;;;;2.78;2.10;;;;;;;22.22;nan;61958.53;5013507;28;20570;-65
2023/09/02 01:37:08;;;;;;;0.90;0.90;;;;;;;21.97;nan;61800.56;5014195;28;20216;-64
2023/09/02 01:39:37;;;;;;;1.02;0.80;;;;;;;21.85;nan;61956.59;5015890;28;20219;-65
2023/09/02 01:42:06;;;;;;;1.33;1.23;;;;;;;21.87;nan;61823.59;5015670;28;20561;-65
2023/09/02 01:44:32;;;;;;;0.95;0.95;;;;;;;21.92;nan;61865.13;5015848;28;20203;-65
2023/09/02 01:47:01;;;;;;;0.77;0.77;;;;;;;21.77;nan;61788.84;5013322;28;20184;-62
2023/09/02 01:49:27;;;;;;;0.88;0.88;;;;;;;21.96;nan;61825.47;5015221;28;20666;-63
2023/09/02 01:51:54;;;;;;;0.60;0.60;;;;;;;21.58;nan;61734.03;5012948;28;20183;-65
2023/09/02 01:54:19;;;;;;;0.93;0.93;;;;;;;21.95;nan;61811.91;5018398;28;20188;-65
2023/09/02 01:56:46;;;;;;;1.38;1.15;;;;;;;21.54;nan;61908.94;5013730;28;20259;-64
2023/09/02 01:59:11;;;;;;;1.17;1.13;;;;;;;21.48;nan;61742.94;4993668;28;20256;-64
2023/09/02 02:01:36;;;;;;;0.80;0.80;;;;;;;21.51;nan;62025.09;4998304;28;20270;-64
2023/09/02 02:04:19;;;;;;;1.05;1.05;;;;;;;21.61;nan;61820.09;5013550;28;20175;-63
2023/09/02 02:06:45;;;;;;;0.60;0.60;;;;;;;21.23;nan;61740.56;5013869;28;20302;-63
2023/09/02 02:09:27;;;;;;;0.65;0.65;;;;;;;21.39;nan;61803.47;5015254;28;20239;-63
2023/09/02 02:11:55;;;;;;;0.77;0.77;;;;;;;20.22;nan;61760.59;5013808;28;20181;-63
2023/09/02 02:14:20;;;;;;;0.75;0.75;;;;;;;20.97;nan;61849.88;5016827;28;20655;-64
2023/09/02 02:16:46;;;;;;;0.82;0.82;;;;;;;20.94;nan;61848.50;5013018;28;20188;-62
2023/09/02 02:19:11;;;;;;;1.02;1.00;;;;;;;21.09;nan;61743.41;5014872;28;20183;-63
2023/09/02 02:21:37;;;;;;;0.82;0.82;;;;;;;20.87;nan;61724.22;5017229;28;20192;-63
2023/09/02 02:24:02;;;;;;;0.85;0.85;;;;;;;20.86;nan;61712.69;5013926;28;20611;-64
2023/09/02 02:26:28;;;;;;;0.60;0.60;;;;;;;20.86;nan;61701.75;5017013;28;20208;-62
2023/09/02 02:28:53;;;;;;;0.50;0.50;;;;;;;20.84;nan;61749.41;5016712;28;20179;-64
2023/09/02 02:31:19;;;;;;;1.05;1.05;;;;;;;20.59;nan;61687.28;5015186;28;20207;-64
2023/09/02 02:33:44;;;;;;;0.70;0.70;;;;;;;20.71;nan;61716.47;5012807;28;20275;-64
2023/09/02 02:36:09;;;;;;;0.60;0.60;;;;;;;20.55;nan;61828.13;5012722;28;20211;-65
2023/09/02 02:38:36;;;;;;;0.60;0.60;;;;;;;20.33;nan;61574.75;5012864;28;20187;-65
2023/09/02 02:41:02;;;;;;;0.63;0.63;;;;;;;16.99;nan;61292.09;5012595;28;20181;-64
2023/09/02 02:43:28;;;;;;;1.13;1.13;;;;;;;20.42;nan;61639.47;5012518;28;20561;-64
2023/09/02 02:45:54;;;;;;;0.60;0.60;;;;;;;20.47;nan;61684.06;5017507;28;20632;-63
2023/09/02 02:48:22;;;;;;;0.70;0.70;;;;;;;20.20;nan;61742.22;5015280;28;20191;-63
2023/09/02 02:50:47;;;;;;;0.98;0.98;;;;;;;20.28;nan;61650.66;5013944;28;20179;-64
2023/09/02 02:53:13;;;;;;;1.50;1.20;;;;;;;20.39;nan;61631.44;5014791;28;20180;-64
2023/09/02 02:55:38;;;;;;;1.17;1.15;;;;;;;20.43;nan;61663.94;5012406;28;20203;-64
2023/09/02 02:58:16;;;;;;;0.60;0.60;;;;;;;20.14;nan;61603.66;5017386;28;20180;-64
2023/09/02 03:00:43;;;;;;;0.70;0.70;;;;;;;20.24;nan;61757.69;5014378;28;20191;-64
2023/09/02 03:03:12;;;;;;;0.80;0.80;;;;;;;20.17;nan;61780.31;5012536;28;20314;-64
2023/09/02 03:05:39;;;;;;;0.80;0.80;;;;;;;20.40;nan;61660.53;5019062;28;20239;-64
2023/09/02 03:08:05;;;;;;;0.70;0.70;;;;;;;20.36;nan;61653.41;5018590;28;20311;-64
2023/09/02 03:10:32;;;;;;;0.68;0.68;;;;;;;20.32;nan;61646.84;5016492;28;20179;-64
2023/09/02 03:12:57;;;;;;;0.80;0.80;;;;;;;20.38;nan;61679.03;5014808;28;20259;-63
2023/09/02 03:15:23;;;;;;;0.90;0.90;;;;;;;20.36;nan;61923.31;5019321;28;20681;-63
2023/09/02 03:17:48;;;;;;;0.63;0.63;;;;;;;20.12;nan;61622.13;5012641;28;20188;-63
2023/09/02 03:20:14;;;;;;;0.55;0.55;;;;;;;20.16;nan;61631.31;5018758;28;20565;-64
2023/09/02 03:22:40;;;;;;;0.60;0.50;;;;;;;20.38;nan;61643.28;5012120;28;20251;-64
2023/09/02 03:25:06;;;;;;;0.70;0.70;;;;;;;20.20;nan;61729.81;5014585;28;20672;-64
2023/09/02 03:27:32;;;;;;;7.80;2.15;;;;;;;20.27;nan;61755.91;5016125;28;20183;-63
2023/09/02 03:29:57;;;;;;;0.77;0.77;;;;;;;20.23;nan;61639.78;5014848;28;20187;-63
2023/09/02 03:32:26;;;;;;;0.98;0.98;;;;;;;20.21;nan;61673.84;5018233;28;20532;-63
2023/09/02 03:34:52;;;;;;;0.80;0.80;;;;;;;20.10;nan;61873.53;4962873;28;20463;-65
2023/09/02 03:37:17;;;;;;;0.75;0.75;;;;;;;20.25;nan;61626.47;4901598;28;20430;-65
2023/09/02 03:39:43;;;;;;;0.88;0.88;;;;;;;20.23;nan;61706.69;4947425;28;20650;-63
2023/09/02 03:42:09;;;;;;;0.60;0.60;;;;;;;20.13;nan;61636.25;5018111;28;20176;-63
2023/09/02 03:44:34;;;;;;;1.17;1.08;;;;;;;20.10;nan;61638.03;5022684;28;20184;-63
2023/09/02 03:46:59;;;;;;;1.13;1.13;;;;;;;20.21;nan;61634.94;5016392;28;20171;-63
2023/09/02 03:49:25;;;;;;;0.68;0.68;;;;;;;20.10;nan;61723.06;5021826;28;20190;-63
2023/09/02 03:51:50;;;;;;;0.90;0.90;;;;;;;20.16;nan;61603.31;5018316;28;20651;-63
2023/09/02 03:54:16;;;;;;;0.60;0.60;;;;;;;20.17;nan;61596.66;5017009;28;20204;-63
2023/09/02 03:56:41;;;;;;;0.93;0.93;;;;;;;19.94;nan;61588.22;5018699;28;20235;-63
2023/09/02 03:59:07;;;;;;;0.60;0.60;;;;;;;19.92;nan;61586.53;5021408;28;20217;-63
2023/09/02 04:01:32;;;;;;;0.85;0.82;;;;;;;20.13;nan;61649.22;5019792;28;20173;-63
2023/09/02 04:03:58;;;;;;;0.95;0.82;;;;;;;20.00;nan;61611.16;5018137;28;20287;-63
2023/09/02 04:06:24;;;;;;;0.60;0.60;;;;;;;19.92;nan;61534.66;5016708;28;20210;-63
2023/09/02 04:08:50;;;;;;;1.15;1.15;;;;;;;19.98;nan;61710.00;5020068;28;20223;-63
2023/09/02 04:11:15;;;;;;;0.80;0.80;;;;;;;19.96;nan;61572.34;5015440;28;20184;-63
2023/09/02 04:13:41;;;;;;;0.60;0.60;;;;;;;20.10;nan;61767.75;5015536;28;20696;-63
2023/09/02 04:16:08;;;;;;;1.20;0.70;;;;;;;20.17;nan;61531.81;5007838;28;20185;-63
2023/09/02 04:18:35;;;;;;;0.85;0.85;;;;;;;20.43;nan;61702.88;4994060;28;20220;-64
2023/09/02 04:21:02;;;;;;;0.77;0.77;;;;;;;20.86;nan;61688.75;4995271;28;20632;-63
2023/09/02 04:23:27;;;;;;;0.93;0.93;;;;;;;21.34;nan;61745.25;4994702;28;20187;-63
2023/09/02 04:25:53;;;;;;;0.82;0.82;;;;;;;21.49;nan;61773.25;4995037;28;20196;-64
2023/09/02 04:28:19;;;;;;;0.88;0.88;;;;;;;21.44;nan;61754.00;4995090;28;20667;-64
2023/09/02 04:30:46;;;;;;;0.68;0.68;;;;;;;21.46;nan;61748.44;5009487;28;20598;-65
2023/09/02 04:33:13;;;;;;;1.05;1.05;;;;;;;20.54;nan;61806.78;5020012;28;20219;-64
2023/09/02 04:35:44;;;;;;;0.57;0.57;;;;;;;21.54;nan;61744.53;5014519;28;20262;-64
2023/09/02 04:38:10;;;;;;;0.52;0.52;;;;;;;21.65;nan;61839.66;5014348;28;20555;-64
2023/09/02 04:40:43;;;;;;;0.75;0.75;;;;;;;21.37;nan;61709.66;5014580;28;20191;-64
2023/09/02 04:43:10;;;;;;;0.75;0.75;;;;;;;21.54;nan;61841.31;5016418;28;20184;-64
2023/09/02 04:45:38;;;;;;;1.10;1.10;;;;;;;21.54;nan;61726.34;5014476;28;20281;-64
2023/09/02 04:48:04;;;;;;;1.13;1.13;;;;;;;20.76;nan;61787.06;5014571;28;20651;-63
2023/09/02 04:50:33;;;;;;;0.90;0.90;;;;;;;21.68;nan;61773.44;5014516;28;20553;-64
2023/09/02 04:52:59;;;;;;;0.70;0.70;;;;;;;21.75;nan;61893.22;5014086;28;20184;-63
2023/09/02 04:55:26;;;;;;;1.13;1.13;;;;;;;21.92;nan;61966.59;5014701;28;20674;-64
2023/09/02 04:57:52;;;;;;;0.75;0.75;;;;;;;21.30;nan;61873.28;5019628;28;20188;-64
2023/09/02 05:00:18;;;;;;;0.80;0.80;;;;;;;21.95;nan;61762.47;5014938;28;20176;-63
2023/09/02 05:02:46;;;;;;;0.90;0.90;;;;;;;22.07;nan;61876.41;5014557;28;20176;-64
2023/09/02 05:05:16;;;;;;;0.80;0.80;;;;;;;21.94;nan;61966.88;5012968;28;20239;-63
2023/09/02 05:07:42;;;;;;;1.15;1.15;;;;;;;19.08;nan;61596.13;5014303;28;20310;-64
2023/09/02 05:10:08;;;;;;;1.52;1.42;;;;;;;22.15;nan;61987.03;5014864;28;20307;-64
2023/09/02 05:12:36;;;;;;;1.05;0.95;;;;;;;21.97;nan;61735.53;5013154;28;20227;-64
2023/09/02 05:15:03;;;;;;;0.90;0.90;;;;;;;22.16;nan;61847.59;5016569;28;20682;-65
2023/09/02 05:17:32;;;;;;;1.20;1.10;;;;;;;22.05;nan;62004.84;5016849;28;20176;-65
2023/09/02 05:19:59;;;;;;;1.80;1.70;;;;;;;22.16;nan;61970.50;5016019;28;20180;-64
2023/09/02 05:22:24;;;;;;;0.60;0.60;;;;;;;22.12;nan;61863.88;5015329;28;20550;-64
2023/09/02 05:24:50;;;;;;;0.98;0.98;;;;;;;21.97;nan;61829.19;5013793;28;20207;-64
2023/09/02 05:27:16;;;;;;;0.90;0.90;;;;;;;22.16;nan;61910.63;5015009;28;20192;-64
2023/09/02 05:29:41;;;;;;;0.82;0.82;;;;;;;22.42;nan;61965.69;5013680;28;20643;-64
2023/09/02 05:32:08;;;;;;;1.08;1.05;;;;;;;22.79;nan;61919.19;5015841;28;20184;-67
2023/09/02 05:34:34;;;;;;;0.60;0.60;;;;;;;22.81;nan;62017.88;5017587;28;20176;-66
2023/09/02 05:37:00;;;;;;;1.25;1.15;;;;;;;23.07;nan;61963.50;5007412;28;20264;-65
2023/09/02 05:39:25;;;;;;;0.70;0.70;;;;;;;23.46;nan;62064.66;5005953;28;20187;-65
2023/09/02 05:41:51;;;;;;;0.95;0.95;;;;;;;23.55;nan;62072.28;5001347;28;20254;-65
2023/09/02 05:44:16;;;;;;;1.50;1.40;;;;;;;23.82;nan;62196.44;5012979;28;20239;-65
2023/09/02 05:46:42;;;;;;;1.60;1.50;;;;;;;23.94;nan;62121.38;5021310;28;20576;-64
2023/09/02 05:49:07;;;;;;;0.77;0.77;;;;;;;24.22;nan;62173.59;5020770;28;20275;-67
2023/09/02 05:51:33;;;;;;;0.68;0.68;;;;;;;24.39;nan;62130.28;5013424;28;20639;-65
2023/09/02 05:53:58;;;;;;;1.02;1.02;;;;;;;24.42;nan;62279.41;5013746;28;20180;-65
2023/09/02 05:56:24;;;;;;;1.30;1.25;;;;;;;24.35;nan;62266.22;5021353;28;20690;-65
2023/09/02 05:58:49;;;;;;;1.15;1.08;;;;;;;24.33;nan;62060.75;5020424;28;20175;-65
2023/09/02 06:01:14;;;;;;;1.08;1.08;;;;;;;24.26;nan;62073.69;5020450;28;20175;-67
2023/09/02 06:03:43;;;;;;;0.90;0.90;;;;;;;24.44;nan;62161.53;5020198;28;20183;-64
2023/09/02 06:06:10;;;;;;;1.05;1.05;;;;;;;24.40;nan;62115.75;5019457;28;20223;-65
2023/09/02 06:08:35;;;;;;;2.40;1.48;;;;;;;24.92;nan;62216.25;5015394;28;20713;-64
2023/09/02 06:11:01;;;;;;;2.47;1.90;;;;;;;25.16;nan;62256.13;5020094;28;20266;-65
2023/09/02 06:13:26;;;;;;;1.30;1.25;;;;;;;25.23;nan;62355.66;5018803;28;20223;-64
2023/09/02 06:15:58;;;;;;;1.92;1.67;;;;;;;25.31;nan;62406.66;5014841;28;20222;-65
2023/09/02 06:18:23;;;;;;;0.77;0.77;;;;;;;25.39;nan;62284.38;4999722;28;20230;-64
2023/09/02 06:20:48;;;;;;;0.40;0.40;;;;;;;25.84;nan;62393.38;5014933;28;20643;-65
2023/09/02 06:23:14;;;;;;;1.17;1.10;;;;;;;26.02;nan;62399.69;5007216;28;20184;-64
2023/09/02 06:25:39;;;;;;;1.08;0.98;;;;;;;26.13;nan;62367.72;5007275;28;20208;-65
2023/09/02 06:28:04;;;;;;;1.73;1.63;;;;;;;26.32;nan;62439.22;4992980;28;20260;-65
2023/09/02 06:30:30;;;;;;;0.80;0.80;;;;;;;26.48;nan;62433.94;5013232;28;20183;-67
2023/09/02 06:32:55;;;;;;;0.70;0.70;;;;;;;26.53;nan;62549.16;5008831;28;20184;-66
2023/09/02 06:35:21;;;;;;;0.85;0.85;;;;;;;26.92;nan;62506.69;5008864;28;20326;-64
2023/09/02 06:37:46;;;;;;;1.02;1.02;;;;;;;27.01;nan;62564.78;5000466;28;20184;-64
2023/09/02 06:40:11;;;;;;;0.90;0.90;;;;;;;26.93;nan;62610.72;5014552;28;20570;-66
2023/09/02 06:42:37;;;;;;;2.67;1.42;;;;;;;27.16;nan;62754.56;5019072;28;20183;-66
2023/09/02 06:45:03;;;;;;;0.95;0.95;;;;;;;27.24;nan;62656.13;5015446;28;20660;-65
2023/09/02 06:47:28;;;;;;;0.57;0.57;;;;;;;27.30;nan;62544.91;5014271;28;20180;-67
2023/09/02 06:49:53;;;;;;;1.13;0.85;;;;;;;27.47;nan;62674.59;5016019;28;20703;-66
2023/09/02 06:52:19;;;;;;;0.60;0.60;;;;;;;27.74;nan;62615.72;5004679;28;20179;-66
2023/09/02 06:54:48;;;;;;;0.95;0.80;;;;;;;27.91;nan;62679.25;5011476;28;20191;-67
2023/09/02 06:57:14;;;;;;;0.60;0.60;;;;;;;28.05;nan;62680.09;5009336;28;20180;-67
2023/09/02 06:59:39;;;;;;;0.68;0.68;;;;;;;28.03;nan;62711.97;5013731;28;20198;-67
2023/09/02 07:02:05;;;;;;;0.47;0.47;;;;;;;28.06;nan;62604.47;5017611;28;20252;-67
2023/09/02 07:04:31;;;;;;;0.52;0.52;;;;;;;28.14;nan;62684.59;5016254;28;20562;-66
2023/09/02 07:06:56;;;;;;;0.40;0.40;;;;;;;28.42;nan;62768.69;5011179;28;20188;-67
2023/09/02 07:09:21;;;;;;;0.50;0.50;;;;;;;28.38;nan;62827.22;5011411;28;20636;-65
2023/09/02 07:11:47;;;;;;;0.55;0.50;;;;;;;28.26;nan;62823.94;5011911;28;20180;-65
2023/09/02 07:14:12;;;;;;;0.40;0.40;;;;;;;28.25;nan;62683.47;5011426;28;20174;-67
2023/09/02 07:16:38;;;;;;;0.75;0.75;;;;;;;28.23;nan;62720.63;5011861;28;20172;-65
2023/09/02 07:19:03;;;;;;;0.70;0.70;;;;;;;28.21;nan;62792.50;5015461;28;20186;-67
2023/09/02 07:21:29;;;;;;;1.67;0.60;;;;;;;28.31;nan;62861.81;5011708;28;20613;-65
2023/09/02 07:23:54;;;;;;;0.77;0.75;;;;;;;28.29;nan;62670.25;5011502;28;20256;-66
2023/09/02 07:26:20;;;;;;;0.55;0.55;;;;;;;28.06;nan;62636.00;5011311;28;20302;-67
2023/09/02 07:28:45;;;;;;;0.65;0.65;;;;;;;28.24;nan;62792.75;5011524;28;20624;-66
2023/09/02 07:31:11;;;;;;;0.80;0.80;;;;;;;27.81;nan;62804.41;5011625;28;20234;-65
2023/09/02 07:33:37;;;;;;;0.88;0.88;;;;;;;28.40;nan;62719.63;5011647;28;20182;-65
2023/09/02 07:36:09;;;;;;;1.58;1.35;;;;;;;28.72;nan;62765.69;5011762;28;20176;-65
2023/09/02 07:38:36;;;;;;;1.40;1.30;;;;;;;28.98;nan;62916.59;5012037;28;20179;-64
2023/09/02 07:41:01;;;;;;;0.82;0.82;;;;;;;28.96;nan;62833.28;5011513;28;20176;-64
2023/09/02 07:43:26;;;;;;;0.32;0.32;;;;;;;28.71;nan;62770.41;5011658;28;20241;-64
2023/09/02 07:45:52;;;;;;;0.45;0.45;;;;;;;27.89;nan;62780.00;5011413;28;20203;-65
2023/09/02 07:48:17;;;;;;;0.77;0.77;;;;;;;28.43;nan;62691.53;5011208;28;20190;-64
2023/09/02 07:50:42;;;;;;;0.50;0.50;;;;;;;28.36;nan;62740.78;5011264;28;20176;-66
2023/09/02 07:53:08;;;;;;;0.45;0.45;;;;;;;28.34;nan;62701.69;5011549;28;20191;-65
2023/09/02 07:55:33;;;;;;;0.47;0.47;;;;;;;28.45;nan;62764.25;5011403;28;20207;-64
2023/09/02 07:58:00;;;;;;;0.43;0.43;;;;;;;28.23;nan;62778.44;5011307;28;20175;-65
2023/09/02 08:00:26;;;;;;;0.65;0.65;;;;;;;28.19;nan;62664.03;5011072;28;20167;-64
2023/09/02 08:02:52;;;;;;;0.50;0.50;;;;;;;28.10;nan;62617.50;5011319;28;20191;-65
2023/09/02 08:05:17;;;;;;;0.40;0.40;;;;;;;28.53;nan;62962.81;5011191;28;20682;-67
2023/09/02 08:07:42;;;;;;;0.75;0.75;;;;;;;28.86;nan;62840.22;5011094;28;20302;-63
2023/09/02 08:10:08;;;;;;;0.70;0.70;;;;;;;28.91;nan;62792.75;5011256;28;20175;-64
2023/09/02 08:12:33;;;;;;;0.60;0.60;;;;;;;28.85;nan;62822.72;5011287;28;20175;-65
2023/09/02 08:14:59;;;;;;;0.70;0.70;;;;;;;28.85;nan;62802.25;5010900;28;20632;-67
2023/09/02 08:17:25;;;;;;;0.60;0.60;;;;;;;29.06;nan;62809.97;5011284;28;20179;-66
2023/09/02 08:19:50;;;;;;;0.40;0.40;;;;;;;28.76;nan;62722.94;5011356;28;20175;-67
2023/09/02 08:22:16;;;;;;;1.10;0.93;;;;;;;28.61;nan;62735.25;5011473;28;20717;-68
2023/09/02 08:24:42;;;;;;;0.82;0.82;;;;;;;28.46;nan;62942.16;5011042;28;20168;-64
2023/09/02 08:27:07;;;;;;;1.05;1.00;;;;;;;28.42;nan;62726.63;5011998;28;20562;-65
2023/09/02 08:29:33;;;;;;;0.80;0.80;;;;;;;28.30;nan;62815.41;5014645;28;20278;-66
2023/09/02 08:31:58;;;;;;;2.28;0.93;;;;;;;28.65;nan;62763.50;5014567;28;20892;-65
2023/09/02 08:34:23;;;;;;;0.85;0.85;;;;;;;29.00;nan;62818.88;5014819;28;20635;-65
2023/09/02 08:36:49;;;;;;;0.50;0.50;;;;;;;28.66;nan;62732.50;5014458;28;20175;-67
2023/09/02 08:39:14;;;;;;;0.77;0.77;;;;;;;28.66;nan;62733.09;5014586;28;20172;-67
2023/09/02 08:41:43;;;;;;;0.70;0.70;;;;;;;28.83;nan;62854.63;5014951;28;20176;-63
2023/09/02 08:44:09;;;;;;;1.08;1.05;;;;;;;28.99;nan;62910.41;5014373;28;20168;-66
2023/09/02 08:46:40;;;;;;;0.47;0.47;;;;;;;28.87;nan;62748.69;5013866;28;20210;-66
2023/09/02 08:49:06;;;;;;;0.90;0.90;;;;;;;28.62;nan;62865.28;5014475;28;20174;-66
2023/09/02 08:51:33;;;;;;;0.88;0.88;;;;;;;28.60;nan;62783.50;5014463;28;20238;-62
2023/09/02 08:54:00;;;;;;;0.45;0.45;;;;;;;28.79;nan;62753.25;5009077;28;20660;-64
2023/09/02 08:56:26;;;;;;;0.45;0.45;;;;;;;;;;5013240;28;20160;-63
2023/09/02 08:58:54;;;;;;;1.50;1.00;;;;;;;29.08;nan;63017.03;5014010;28;20207;-64
2023/09/02 09:01:20;;;;;;;0.60;0.60;;;;;;;29.14;nan;62805.97;5014313;28;20238;-63
2023/09/02 09:03:53;;;;;;;0.45;0.45;;;;;;;29.18;nan;62778.41;5014164;28;20175;-66
2023/09/02 09:06:21;;;;;;;0.57;0.57;;;;;;;29.72;nan;62910.91;5014027;28;20203;-65
2023/09/02 09:08:48;;;;;;;0.73;0.73;;;;;;;30.01;nan;62941.59;5014051;28;20259;-64
2023/09/02 09:11:17;;;;;;;0.60;0.60;;;;;;;29.90;nan;63004.84;5013490;28;20171;-64
2023/09/02 09:13:45;;;;;;;0.50;0.50;;;;;;;30.25;nan;63040.38;5013736;28;20182;-64
2023/09/02 09:16:16;;;;;;;0.40;0.40;;;;;;;30.29;nan;62997.50;5014195;28;20162;-66
2023/09/02 09:18:42;;;;;;;0.70;0.70;;;;;;;30.11;nan;63069.09;5013764;28;20172;-64
2023/09/02 09:21:07;;;;;;;0.60;0.60;;;;;;;30.21;nan;63014.09;5013652;28;20175;-64
2023/09/02 09:23:35;;;;;;;0.45;0.45;;;;;;;30.20;nan;62921.22;5014023;28;20547;-64
2023/09/02 09:26:04;;;;;;;0.93;0.93;;;;;;;30.40;nan;62993.16;5013696;28;20684;-65
2023/09/02 09:28:55;;;;;;;0.70;0.70;;;;;;;30.47;nan;63046.09;5013515;28;20306;-64
2023/09/02 09:31:21;;;;;;;0.57;0.57;;;;;;;30.71;nan;63102.69;5013368;28;20175;-66
2023/09/02 09:33:51;;;;;;;1.33;1.20;;;;;;;30.92;nan;63163.25;5013460;28;20167;-66
2023/09/02 09:36:20;;;;;;;0.70;0.70;;;;;;;31.07;nan;63241.91;5013411;28;20217;-66
2023/09/02 09:38:45;;;;;;;0.65;0.65;;;;;;;31.22;nan;63170.84;5013322;28;20297;-65
2023/09/02 09:41:11;;;;;;;0.63;0.63;;;;;;;30.59;nan;63063.09;5013225;28;20180;-65
2023/09/02 09:43:36;;;;;;;0.35;0.35;;;;;;;29.85;nan;62965.94;5013451;28;20634;-68
2023/09/02 09:46:03;;;;;;;0.80;0.80;;;;;;;29.65;nan;62918.69;5013401;28;20245;-65
2023/09/02 09:48:29;;;;;;;0.45;0.45;;;;;;;29.83;nan;62963.66;5013146;28;20194;-65
2023/09/02 09:50:55;;;;;;;0.57;0.57;;;;;;;30.27;nan;63057.94;5012662;28;20171;-66
2023/09/02 09:53:20;;;;;;;0.50;0.50;;;;;;;30.28;nan;63059.66;5012897;28;20661;-67
2023/09/02 09:55:46;;;;;;;0.32;0.32;;;;;;;30.37;nan;63145.94;5012866;28;20178;-67
2023/09/02 09:58:11;;;;;;;0.52;0.52;;;;;;;30.66;nan;63108.09;5013044;28;20175;-65
2023/09/02 10:00:37;;;;;;;1.00;0.65;;;;;;;30.97;nan;63217.13;5012563;28;20660;-68
2023/09/02 10:03:03;;;;;;;0.50;0.50;;;;;;;31.08;nan;63176.41;5011797;28;20171;-69
2023/09/02 10:05:33;;;;;;;1.08;0.93;;;;;;;31.02;nan;63225.56;5012814;28;20191;-65
2023/09/02 10:08:01;;;;;;;0.40;0.40;;;;;;;30.86;nan;63151.66;5012912;28;20713;-65
2023/09/02 10:10:29;;;;;;;0.50;0.50;;;;;;;27.69;nan;64656.66;5012946;28;20266;-64
2023/09/02 10:12:57;;;;;;;0.35;0.35;;;;;;;30.73;nan;63056.91;5012468;28;20179;-66
2023/09/02 10:15:27;;;;;;;0.35;0.35;;;;;;;30.87;nan;63073.03;5012740;28;20203;-63
2023/09/02 10:18:03;;;;;;;0.63;0.63;;;;;;;30.53;nan;63132.72;5019221;28;20182;-65
2023/09/02 10:20:35;;;;;;;0.45;0.45;;;;;;;30.60;nan;63080.09;5016880;28;20191;-64
2023/09/02 10:23:08;;;;;;;0.30;0.30;;;;;;;30.55;nan;63010.41;5021150;28;20183;-65
2023/09/02 10:26:05;;;;;;;0.32;0.32;;;;;;;31.01;nan;63178.94;5019285;28;20198;-64
2023/09/02 10:28:39;;;;;;;0.75;0.75;;;;;;;31.32;nan;63182.34;5017522;28;20246;-65
2023/09/02 10:31:30;;;;;;;0.45;0.45;;;;;;;30.86;nan;63056.59;5015280;28;20179;-63
2023/09/02 10:34:07;;;;;;;0.47;0.47;;;;;;;31.11;nan;63113.84;5021757;28;20241;-70
2023/09/02 10:36:38;;;;;;;0.43;0.43;;;;;;;30.89;nan;63101.72;5017340;28;20272;-67
2023/09/02 10:39:12;;;;;;;0.38;0.38;;;;;;;30.78;nan;63168.84;5015962;28;20675;-65
2023/09/02 10:41:38;;;;;;;0.68;0.68;;;;;;;30.99;nan;63219.44;5015041;28;20191;-64
2023/09/02 10:44:04;;;;;;;0.55;0.55;;;;;;;31.07;nan;63260.38;5012970;28;20178;-64
2023/09/02 10:46:30;;;;;;;0.70;0.70;;;;;;;31.04;nan;63155.97;5010179;28;20215;-65
2023/09/02 10:48:58;;;;;;;0.65;0.65;;;;;;;31.26;nan;63170.72;5010482;28;20182;-64
2023/09/02 10:51:24;;;;;;;0.60;0.60;;;;;;;31.11;nan;63161.41;5005101;28;20188;-65
2023/09/02 10:53:53;;;;;;;0.60;0.60;;;;;;;30.82;nan;63133.28;5015886;28;20179;-66
2023/09/02 10:56:35;;;;;;;0.60;0.60;;;;;;;30.44;nan;63187.72;5012678;28;20555;-66
2023/09/02 10:59:05;;;;;;;0.60;0.60;;;;;;;30.70;nan;63054.63;5011347;28;20265;-68
2023/09/02 11:01:45;;;;;;;0.60;0.60;;;;;;;30.58;nan;63030.25;5016277;28;20187;-66
2023/09/02 11:04:10;;;;;;;0.40;0.40;;;;;;;31.05;nan;63217.88;5015234;28;20242;-66
2023/09/02 11:06:36;;;;;;;0.35;0.35;;;;;;;31.28;nan;63267.56;5006105;28;20682;-66
2023/09/02 11:09:01;;;;;;;0.28;0.28;;;;;;;31.67;nan;63156.03;5008940;28;20290;-66
2023/09/02 11:12:06;;;;;;;0.82;0.55;;;;;;;30.99;nan;63163.97;5014570;28;20178;-65
2023/09/02 11:14:32;;;;;;;0.60;0.60;;;;;;;30.73;nan;63038.44;5015138;28;20211;-66
2023/09/02 11:17:27;;;;;;;1.27;1.17;;;;;;;30.81;nan;63124.19;5014202;28;20266;-66
2023/09/02 11:20:01;;;;;;;0.40;0.40;;;;;;;30.71;nan;63066.31;5008315;28;20187;-65
2023/09/02 11:23:01;;;;;;;0.60;0.60;;;;;;;30.76;nan;63182.38;5012116;28;20241;-65
2023/09/02 11:25:37;;;;;;;0.68;0.68;;;;;;;30.53;nan;63103.69;5012087;28;20270;-65
2023/09/02 11:28:12;;;;;;;0.65;0.65;;;;;;;30.53;nan;63053.53;5018865;28;20289;-65
2023/09/02 11:30:39;;;;;;;0.50;0.50;;;;;;;30.29;nan;63105.63;5019645;28;20248;-65
2023/09/02 11:33:09;;;;;;;0.80;0.70;;;;;;;30.40;nan;62996.38;5017472;28;20225;-65
2023/09/02 11:35:36;;;;;;;0.40;0.40;;;;;;;30.58;nan;63072.50;5013893;28;20175;-65
2023/09/02 11:38:15;;;;;;;0.52;0.52;;;;;;;30.89;nan;63175.66;5011974;28;20183;-65
2023/09/02 11:40:41;;;;;;;0.43;0.43;;;;;;;30.15;nan;63086.34;5011792;28;20250;-65
2023/09/02 11:43:06;;;;;;;0.45;0.45;;;;;;;31.02;nan;63145.75;5011358;28;20215;-66
2023/09/02 11:45:34;;;;;;;2.22;1.17;;;;;;;31.10;nan;63215.72;5011113;28;20670;-66
2023/09/02 11:48:02;;;;;;;1.17;1.08;;;;;;;31.33;nan;63162.94;5011660;28;20174;-66
2023/09/02 11:50:28;;;;;;;0.57;0.57;;;;;;;30.80;nan;63181.13;5011525;28;20259;-66
2023/09/02 11:52:56;;;;;;;0.60;0.60;;;;;;;30.83;nan;63095.41;5011280;28;20270;-66